Central Nebraska Regional Airport Grand Island US
ICAO: KGRI
IATA: GRI
Category: Medium
Scheduled Services: Yes

Elevation: 1847 ft
TransAlt. 18000 ft.

Airport Communications:
ATIS:127.4
CLNC DEL:121.9
MINNEAPOLIS CNTR:119.4
CTAF:118.2
GND:121.9
ARNG OPS:38
COLUMBUS RDO:122.45
GRAND ISLAND TWR:118.2
UNICOM:122.95

KGRI Zoom In..

Runways:

(A) RW 13 length 6608 ft width 100 ft
---- / hdg 128

(B) RW 17 length 7002 ft width 150 ft
---- / hdg 173

(C) RW 31 length 6608 ft width 100 ft
---- / hdg 308

(D) RW 35 length 7002 ft width 150 ft
ILS 111.90 / hdg 353

Location; KGRI
Day. 23 / Time. 07.19 Zulu
* Altimeter: 30.15
* Temperature: 22° c. 71.6°f.
* Wind from: 310° Speed 09 kn.
Dewpoint: 20° c.
Visibility: 7 Statute Miles.
Clouds: Few 3500 ft.
Clouds: Scattered 7000 ft.
Clouds: Broken 8000 ft.

KGRI 230719Z AUTO 31009KT 7SM -TSRA FEW035 SCT070 BKN080 22/20 A3015 RMK AO2 LTG DSNT W-NE TSB13 P0005 T02170200


Wind From 310°
Speed 09 kn.

 
 
jpsmedia.com for Web Design worldairports.se 2018   terms of use